Lincoln, Alabama
Current Conditions -  °F | °C
As of 5:15 PM on Sunday 21 Dec 2014 (Local Time) from KASN Reporting Station
Overcast Overcast  
Wind Chill: 12°   Ceiling: 2000
Heat Index: 12°   Visibility: 10mi
Dew Point:   Wind: 3mph
Humidity: 80%   Direction: 90°E
Pressure: 30.07"   Gusts: NA
Location:  33.61°N, 86.12°W
Report Text: KASN 212315Z AUTO 09003KT 10SM OVC020 12/09 A3007 RMK AO2 T01200086
Loading
Personal Weather Stations






























Interactive Weather Map New forecast layout! Learn more

10-Day Weather Forecast

Advertisements
Track Severe Weather on mobile